createdAt,value
2022-07-29T00:03:21.056Z,0
2022-07-29T00:08:21.009Z,0
2022-07-29T00:13:31.899Z,0
2022-07-29T00:18:21.075Z,0
2022-07-29T00:23:21.054Z,0
2022-07-29T00:28:21.119Z,0
2022-07-29T00:33:21.140Z,0
2022-07-29T00:38:21.162Z,0
2022-07-29T00:43:21.168Z,0
2022-07-29T00:48:21.173Z,0
2022-07-29T00:53:21.203Z,0
2022-07-29T00:58:21.224Z,0
2022-07-29T01:03:21.226Z,0
2022-07-29T01:08:21.313Z,0
2022-07-29T01:13:21.290Z,0
2022-07-29T01:18:21.411Z,0
2022-07-29T01:23:21.344Z,0
2022-07-29T01:28:21.349Z,0
2022-07-29T01:33:21.393Z,0
2022-07-29T01:38:21.398Z,0
2022-07-29T01:43:21.411Z,0
2022-07-29T01:48:21.414Z,0
2022-07-29T01:53:21.431Z,0
2022-07-29T01:58:21.490Z,0
2022-07-29T02:03:21.538Z,0
2022-07-29T02:08:21.571Z,0
2022-07-29T02:13:21.511Z,0
2022-07-29T02:18:21.530Z,0
2022-07-29T02:23:21.589Z,0
2022-07-29T02:28:21.565Z,0
2022-07-29T02:33:21.614Z,0
2022-07-29T02:38:21.642Z,0
2022-07-29T02:43:21.654Z,0
2022-07-29T02:48:21.689Z,0
2022-07-29T02:53:21.723Z,0
2022-07-29T02:58:21.721Z,0
2022-07-29T03:03:21.748Z,0
2022-07-29T03:08:21.781Z,0
2022-07-29T03:13:21.779Z,0
2022-07-29T03:18:21.797Z,0
2022-07-29T03:23:21.862Z,0
2022-07-29T03:28:22.169Z,0
2022-07-29T03:33:21.876Z,0
2022-07-29T03:38:21.904Z,0
2022-07-29T03:43:21.936Z,0
2022-07-29T03:48:21.909Z,0
2022-07-29T03:53:21.949Z,1
2022-07-29T03:58:21.997Z,3
2022-07-29T04:03:21.995Z,4
2022-07-29T04:08:22.096Z,9
2022-07-29T04:13:22.020Z,7
2022-07-29T04:18:22.053Z,7
2022-07-29T04:23:22.064Z,12
2022-07-29T04:28:22.075Z,12
2022-07-29T04:33:22.117Z,11
2022-07-29T04:38:22.139Z,15
2022-07-29T04:43:22.699Z,16
2022-07-29T04:48:26.663Z,15
2022-07-29T04:53:22.189Z,15
2022-07-29T04:58:22.198Z,15
2022-07-29T05:03:22.212Z,18
2022-07-29T05:08:22.235Z,19
2022-07-29T05:13:22.257Z,20
2022-07-29T05:18:22.290Z,23
2022-07-29T05:23:22.305Z,23
2022-07-29T05:28:22.335Z,29
2022-07-29T05:33:34.526Z,38
2022-07-29T05:38:22.375Z,49
2022-07-29T05:43:22.395Z,67
2022-07-29T05:48:22.411Z,72
2022-07-29T05:53:23.535Z,67
2022-07-29T05:58:35.151Z,72
2022-07-29T06:03:36.237Z,95
2022-07-29T06:08:36.269Z,115
2022-07-29T06:13:36.290Z,125
2022-07-29T06:18:36.282Z,126
2022-07-29T06:23:36.336Z,117
2022-07-29T06:28:36.322Z,121
2022-07-29T06:33:36.395Z,129
2022-07-29T06:38:40.410Z,133
2022-07-29T06:43:36.430Z,136
2022-07-29T06:48:36.669Z,164
2022-07-29T06:53:36.495Z,186
2022-07-29T06:58:36.480Z,210
2022-07-29T07:03:36.454Z,217
2022-07-29T07:08:36.504Z,204
2022-07-29T07:13:36.765Z,183
2022-07-29T07:18:36.537Z,166
2022-07-29T07:23:36.561Z,163
2022-07-29T07:28:36.576Z,176
2022-07-29T07:33:36.640Z,207
2022-07-29T07:38:36.654Z,242
2022-07-29T07:43:36.654Z,281
2022-07-29T07:48:36.734Z,315
2022-07-29T07:53:36.689Z,319
2022-07-29T07:58:36.702Z,368
2022-07-29T08:03:36.723Z,415
2022-07-29T08:08:36.778Z,438
2022-07-29T08:13:36.793Z,472
2022-07-29T08:18:36.789Z,304
2022-07-29T08:23:45.883Z,269
2022-07-29T08:28:36.837Z,269
2022-07-29T08:33:36.888Z,273
2022-07-29T08:38:36.883Z,290
2022-07-29T08:43:36.899Z,291
2022-07-29T08:48:36.986Z,422
2022-07-29T08:53:36.904Z,609
2022-07-29T08:58:38.254Z,567
2022-07-29T09:03:37.112Z,635
2022-07-29T09:08:37.002Z,677
2022-07-29T09:13:37.768Z,777
2022-07-29T09:18:37.765Z,689
2022-07-29T09:23:37.772Z,797
2022-07-29T09:28:37.797Z,780
2022-07-29T09:33:37.796Z,670
2022-07-29T09:38:37.849Z,901
2022-07-29T09:43:37.868Z,703
2022-07-29T09:48:38.417Z,602
2022-07-29T09:53:38.406Z,613
2022-07-29T09:58:38.442Z,595
2022-07-29T10:03:38.498Z,667
2022-07-29T10:08:38.464Z,933
2022-07-29T10:13:38.492Z,712
2022-07-29T10:18:38.516Z,547
2022-07-29T10:23:46.651Z,492
2022-07-29T10:28:38.563Z,392
2022-07-29T10:33:38.661Z,332
2022-07-29T10:38:38.630Z,277
2022-07-29T10:43:38.631Z,259
2022-07-29T10:48:38.919Z,254
2022-07-29T10:53:38.903Z,275
2022-07-29T10:58:38.968Z,309
2022-07-29T11:03:38.986Z,346
2022-07-29T11:08:39.014Z,630
2022-07-29T11:13:41.401Z,785
2022-07-29T11:18:39.024Z,865
2022-07-29T11:23:39.039Z,561
2022-07-29T11:28:39.048Z,583
2022-07-29T11:33:54.983Z,763
2022-07-29T11:38:42.100Z,225
2022-07-29T11:43:42.124Z,459
2022-07-29T11:48:42.147Z,499
2022-07-29T11:53:42.134Z,731
2022-07-29T11:58:42.210Z,286
2022-07-29T12:03:42.190Z,318
2022-07-29T12:08:42.890Z,342
2022-07-29T12:13:42.756Z,413
2022-07-29T12:18:42.827Z,463
2022-07-29T12:23:42.780Z,766
2022-07-29T12:28:42.807Z,1032
2022-07-29T12:33:42.823Z,1018
2022-07-29T12:38:42.865Z,527
2022-07-29T12:43:42.857Z,308
2022-07-29T12:48:42.969Z,334
2022-07-29T12:53:43.189Z,679
2022-07-29T12:58:43.835Z,296
2022-07-29T13:03:42.984Z,382
2022-07-29T13:08:43.656Z,543
2022-07-29T13:13:43.659Z,586
2022-07-29T13:18:43.678Z,578
2022-07-29T13:23:43.738Z,463
2022-07-29T13:28:44.439Z,522
2022-07-29T13:33:44.762Z,472
2022-07-29T13:38:46.666Z,583
2022-07-29T13:43:46.556Z,633
2022-07-29T13:48:46.591Z,360
2022-07-29T13:53:46.567Z,214
2022-07-29T13:58:46.629Z,200
2022-07-29T14:03:46.640Z,210
2022-07-29T14:08:46.675Z,202
2022-07-29T14:13:46.683Z,193
2022-07-29T14:18:46.704Z,195
2022-07-29T14:23:46.735Z,212
2022-07-29T14:28:46.726Z,195
2022-07-29T14:33:49.207Z,145
2022-07-29T14:38:46.759Z,131
2022-07-29T14:43:46.823Z,115
2022-07-29T14:48:46.877Z,107
2022-07-29T14:53:46.837Z,111
2022-07-29T14:58:49.054Z,121
2022-07-29T15:03:46.871Z,120
2022-07-29T15:08:46.896Z,105
2022-07-29T15:13:47.136Z,113
2022-07-29T15:18:46.955Z,130
2022-07-29T15:23:46.972Z,115
2022-07-29T15:28:46.983Z,109
2022-07-29T15:33:47.003Z,113
2022-07-29T15:38:47.047Z,110
2022-07-29T15:43:47.079Z,83
2022-07-29T15:48:47.118Z,48
2022-07-29T15:53:53.430Z,34
2022-07-29T15:58:47.131Z,31
2022-07-29T16:03:47.216Z,27
2022-07-29T16:08:47.171Z,23
2022-07-29T16:13:47.175Z,17
2022-07-29T16:18:47.209Z,10
2022-07-29T16:23:47.271Z,10
2022-07-29T16:28:47.274Z,12
2022-07-29T16:33:55.376Z,13
2022-07-29T16:38:47.571Z,11
2022-07-29T16:43:47.325Z,11
2022-07-29T16:48:47.359Z,13
2022-07-29T16:53:48.955Z,13
2022-07-29T16:58:48.671Z,13
2022-07-29T17:03:48.667Z,11
2022-07-29T17:08:48.682Z,7
2022-07-29T17:13:48.671Z,11
2022-07-29T17:18:48.742Z,14
2022-07-29T17:23:48.758Z,11
2022-07-29T17:28:48.760Z,13
2022-07-29T17:33:48.803Z,10
2022-07-29T17:38:48.830Z,4
2022-07-29T17:43:48.850Z,3
2022-07-29T17:48:48.884Z,2
2022-07-29T17:53:48.890Z,5
2022-07-29T17:58:48.888Z,6
2022-07-29T18:03:48.895Z,10
2022-07-29T18:08:48.994Z,12
2022-07-29T18:13:48.970Z,12
2022-07-29T18:18:48.995Z,16
2022-07-29T18:23:49.016Z,13
2022-07-29T18:28:49.034Z,21
2022-07-29T18:33:49.048Z,38
2022-07-29T18:38:49.083Z,47
2022-07-29T18:43:49.099Z,47
2022-07-29T18:48:49.166Z,40
2022-07-29T18:53:49.160Z,31
2022-07-29T18:58:49.138Z,19
2022-07-29T19:03:49.191Z,16
2022-07-29T19:08:49.179Z,4
2022-07-29T19:13:49.170Z,0
2022-07-29T19:18:49.209Z,0
2022-07-29T19:24:00.491Z,0
2022-07-29T19:28:49.354Z,0
2022-07-29T19:33:49.315Z,0
2022-07-29T19:38:49.316Z,0
2022-07-29T19:43:50.325Z,0
2022-07-29T19:48:49.393Z,0
2022-07-29T19:53:49.372Z,0
2022-07-29T19:58:49.388Z,0
2022-07-29T20:03:49.412Z,0
2022-07-29T20:08:49.427Z,0
2022-07-29T20:13:49.439Z,0
2022-07-29T20:18:49.513Z,0
2022-07-29T20:23:49.496Z,0
2022-07-29T20:28:49.785Z,0
2022-07-29T20:33:49.547Z,0
2022-07-29T20:38:49.538Z,0
2022-07-29T20:43:49.602Z,0
2022-07-29T20:48:49.663Z,0
2022-07-29T20:53:49.609Z,0
2022-07-29T20:58:49.662Z,0
2022-07-29T21:03:49.645Z,0
2022-07-29T21:08:49.698Z,0
2022-07-29T21:13:49.717Z,0
2022-07-29T21:18:49.746Z,0
2022-07-29T21:23:49.763Z,0
2022-07-29T21:28:50.216Z,0
2022-07-29T21:33:49.777Z,0
2022-07-29T21:38:49.828Z,0
2022-07-29T21:43:49.797Z,0
2022-07-29T21:48:49.855Z,0
2022-07-29T21:53:49.884Z,0
2022-07-29T21:58:49.907Z,0
2022-07-29T22:03:49.904Z,0
2022-07-29T22:08:49.920Z,0
2022-07-29T22:13:49.928Z,0
2022-07-29T22:18:49.998Z,0
2022-07-29T22:23:50.017Z,0
2022-07-29T22:28:50.006Z,0
2022-07-29T22:33:50.053Z,0
2022-07-29T22:38:51.926Z,0
2022-07-29T22:43:50.109Z,0
2022-07-29T22:48:50.180Z,0
2022-07-29T22:53:50.128Z,0
2022-07-29T22:58:50.140Z,0
2022-07-29T23:03:51.070Z,0
2022-07-29T23:08:50.189Z,0
2022-07-29T23:13:50.197Z,0
2022-07-29T23:18:50.209Z,0
2022-07-29T23:23:50.252Z,0
2022-07-29T23:28:50.267Z,0
2022-07-29T23:33:50.301Z,0
2022-07-29T23:38:50.312Z,0
2022-07-29T23:43:50.309Z,0
2022-07-29T23:48:50.433Z,0
2022-07-29T23:53:52.969Z,0
2022-07-29T23:58:50.404Z,0
